Flight Track Log - Related Links

Times and Time Zones

All times are in EDT time to prevent confusion due to time zone crossing. See the GLA154 flight status page for this flight to view local times or setup timezone preferences in your user account.


Time Position Orientation Groundspeed Altitude Reporting Facility
EDT Latitude Longitude Course Direction KTS MPH feet Rate Location/Type
Mon 10:22:57 AM 35.1497 -114.0433 213° Southwest 170 196 8,200  Level Los Angeles Center
Mon 10:23:59 AM 35.1097 -114.0814 218° Southwest 177 204 9,700 1,366 Climbing Los Angeles Center
Mon 10:25:00 AM 35.0722 -114.1186 219° Southwest 174 200 11,000 1,268 Climbing Los Angeles Center
Mon 10:26:02 AM 35.0364 -114.1658 227° Southwest 188 216 12,300 1,258 Climbing Los Angeles Center
Mon 10:27:00 AM 35.0108 -114.2000 180° South  Level FlightAware Approximate
Mon 10:27:04 AM 35.0258 -114.2281 258° West 187 215 13,600  Level Los Angeles Center
Mon 10:28:05 AM 35.0133 -114.2933 257° West 195 224 14,400 927 Climbing Los Angeles Center
Mon 10:29:07 AM 34.9978 -114.3750 257° West 206 237 15,500 976 Climbing Los Angeles Center
Mon 10:30:08 AM 34.9872 -114.4439 259° West 206 237 16,400 829 Climbing Los Angeles Center
Mon 10:31:10 AM 34.9742 -114.5139 257° West 210 242 17,200 726 Climbing Los Angeles Center
Mon 10:32:12 AM 34.9631 -114.5844 259° West 211 243 17,900 774 Climbing Los Angeles Center
Mon 10:33:14 AM 34.9539 -114.6561 261° West 213 245 18,800 780 Climbing Los Angeles Center
Mon 10:34:15 AM 34.9464 -114.7294 263° West 217 250 19,500 585 Climbing Los Angeles Center
Mon 10:35:17 AM 34.9406 -114.8028 264° West 218 251 20,000 242 Climbing Los Angeles Center
Mon 10:36:19 AM 34.9358 -114.8803 266° West 227 261 20,000  Level Los Angeles Center
Mon 10:37:20 AM 34.9303 -114.9703 266° West 221 254 20,000  Level Los Angeles Center
Mon 10:38:22 AM 34.9281 -115.0436 268° West 217 250 20,000  Level Los Angeles Center
Mon 10:39:24 AM 34.9214 -115.1161 264° West 215 247 20,000 49 Level Los Angeles Center
Mon 10:40:25 AM 34.9153 -115.1900 264° West 217 250 20,100  Climbing Los Angeles Center
Mon 10:41:27 AM 34.9086 -115.2636 264° West 219 252 20,000 -48 Descending Los Angeles Center
Mon 10:42:29 AM 34.9022 -115.3375 264° West 219 252 20,000 -49 Level Los Angeles Center
Mon 10:43:30 AM 34.8908 -115.4100 259° West 217 250 19,900 49 Descending Los Angeles Center
Mon 10:44:32 AM 34.8822 -115.4828 262° West 216 249 20,100 48 Climbing Los Angeles Center
Mon 10:45:34 AM 34.8744 -115.5636 263° West 226 260 20,000 -48 Descending Los Angeles Center
Mon 10:46:36 AM 34.8706 -115.6383 266° West 223 257 20,000 48 Level Los Angeles Center
Mon 10:47:38 AM 34.8658 -115.7117 266° West 220 253 20,100 44 Climbing Los Angeles Center
Mon 10:48:51 AM 34.8581 -115.8003 264° West 220 253 20,100 -44 Level Los Angeles Center
Mon 10:49:54 AM 34.8481 -115.8914 262° West 225 259 20,000 -48 Descending Los Angeles Center
Mon 10:50:56 AM 34.8400 -115.9636 262° West 220 253 20,000  Level Los Angeles Center
Mon 10:51:57 AM 34.8322 -116.0375 263° West 219 252 20,000  Level Los Angeles Center
Mon 10:52:59 AM 34.8256 -116.1156 264° West 225 259 20,000 -48 Level Los Angeles Center
Mon 10:54:01 AM 34.8181 -116.1942 263° West 231 266 19,900  Descending Los Angeles Center
Mon 10:55:03 AM 34.8131 -116.2822 266° West 222 255 20,000 48 Climbing Los Angeles Center
Mon 10:56:05 AM 34.8044 -116.3578 262° West 224 258 20,000  Level Los Angeles Center
Mon 10:57:07 AM 34.7961 -116.4344 262° West 228 262 20,000  Level Los Angeles Center
Mon 10:58:09 AM 34.7908 -116.5136 265° West 233 268 20,000  Level Los Angeles Center
Mon 10:59:11 AM 34.7828 -116.5931 263° West 236 272 20,000  Level Los Angeles Center
Mon 11:00:12 AM 34.7761 -116.6714 264° West 233 268 20,000  Level Los Angeles Center
Mon 11:01:14 AM 34.7678 -116.7508 263° West 237 273 20,000  Level Los Angeles Center
Mon 11:02:16 AM 34.7544 -116.8469 260° West 238 274 20,000 -48 Level Los Angeles Center
Mon 11:03:18 AM 34.7372 -116.9278 255° West 246 283 19,900 -339 Descending Los Angeles Center
Mon 11:04:20 AM 34.7289 -117.0069 263° West 238 274 19,300 -629 Descending Los Angeles Center
Mon 11:05:22 AM 34.7211 -117.0872 263° West 239 275 18,600 -726 Descending Los Angeles Center
Mon 11:06:24 AM 34.7111 -117.1661 261° West 237 273 17,800 -768 Descending Los Angeles Center
Mon 11:07:27 AM 34.7067 -117.2450 266° West 235 270 17,000 -816 Descending Los Angeles Center
Mon 11:08:29 AM 34.7036 -117.3400 268° West 233 268 16,100 -823 Descending Los Angeles Center
Mon 11:09:31 AM 34.7006 -117.4183 267° West 232 267 15,300 -677 Descending Los Angeles Center
Mon 11:10:33 AM 34.6956 -117.4964 266° West 232 267 14,700 -532 Descending Los Angeles Center
Mon 11:11:35 AM 34.6858 -117.5739 261° West 232 267 14,200 -581 Descending Los Angeles Center
Mon 11:12:37 AM 34.6736 -117.6517 259° West 234 269 13,500 -532 Descending Los Angeles Center
Mon 11:13:39 AM 34.6639 -117.7306 262° West 236 272 13,100 -387 Descending Los Angeles Center
Mon 11:14:41 AM 34.6539 -117.8078 261° West 232 267 12,700 -774 Descending Los Angeles Center
Mon 11:15:43 AM 34.6439 -117.9056 263° West 239 275 11,500 -1,200 Descending Los Angeles Center
Mon 11:16:46 AM 34.6375 -117.9878 265° West 248 285 10,200 -768 Descending Los Angeles Center
Mon 11:17:48 AM 34.6211 -118.0639 255° West 248 285 9,900 -629 Descending Los Angeles Center
Mon 11:18:50 AM 34.5794 -118.1272 231° Southwest 235 270 8,900 -968 Descending Los Angeles Center
Mon 11:19:52 AM 34.5378 -118.2011 236° Southwest 245 282 7,900 -435 Descending Los Angeles Center
Mon 11:20:54 AM 34.5017 -118.2647 235° Southwest 232 267 8,000 48 Climbing Los Angeles Center
Mon 11:21:56 AM 34.4553 -118.3161 222° Southwest 249 287 8,000  Level Los Angeles Center
Mon 11:22:58 AM 34.3819 -118.3208 183° South 262 302 8,000 -145 Level Los Angeles Center
Mon 11:24:00 AM 34.2956 -118.3319 186° South 260 299 7,700 -435 Descending Los Angeles Center
Mon 11:25:02 AM 34.2267 -118.2931 155° Southeast 275 316 7,100 -532 Descending Los Angeles Center
Mon 11:26:04 AM 34.1628 -118.2519 152° Southeast 263 303 6,600 -968 Descending Los Angeles Center
Mon 11:27:06 AM 34.1097 -118.2156 150° Southeast 225 259 5,100 -1,597 Descending Los Angeles Center
Mon 11:28:08 AM 34.0722 -118.1628 131° Southeast 209 241 3,300 -1,200 Descending Los Angeles Center
Mon 11:29:11 AM 34.0236 -118.1422 161° South 201 231 2,600 -528 Descending Los Angeles Center
Mon 11:30:13 AM 33.9775 -118.1717 208° Southwest 193 222 2,200 -194 Descending Los Angeles Center
Mon 11:31:15 AM 33.9700 -118.2294 261° West 183 211 2,200 -48 Level Los Angeles Center
Mon 11:32:17 AM 33.9647 -118.2867 264° West 177 204 2,100 -435 Descending Los Angeles Center
Mon 11:33:19 AM 33.9589 -118.3364 262° West 164 189 1,300 -629 Descending Los Angeles Center
Mon 11:34:21 AM 33.9569 -118.3686 266° West 143 165 800 -581 Descending Los Angeles Center
Mon 11:35:23 AM 33.9508 -118.4156 261° West 127 146 100 -677 Descending Los Angeles Center
Mon 11:37:00 AM 33.9425 -118.4081 85° East  Level Estimated

Login

Don't have an account? Register now (free) for customized features, flight alerts, and more!